createdAt,value
2023-05-25T00:01:02.688Z,95.93
2023-05-25T00:03:31.956Z,96.54
2023-05-25T00:06:01.648Z,96.72
2023-05-25T00:08:29.332Z,96.30
2023-05-25T00:10:56.186Z,96.14
2023-05-25T00:13:22.891Z,95.70
2023-05-25T00:15:49.577Z,95.80
2023-05-25T00:18:16.276Z,95.74
2023-05-25T00:20:44.871Z,95.39
2023-05-25T00:23:11.764Z,96.57
2023-05-25T00:25:38.652Z,96.45
2023-05-25T00:28:05.283Z,96.35
2023-05-25T00:30:32.020Z,96.50
2023-05-25T00:32:59.895Z,96.93
2023-05-25T00:35:26.645Z,97.15
2023-05-25T00:37:53.282Z,97.41
2023-05-25T00:40:19.954Z,97.49
2023-05-25T00:42:47.367Z,97.44
2023-05-25T00:45:14.114Z,97.34
2023-05-25T00:47:41.616Z,98.05
2023-05-25T00:50:10.168Z,98.01
2023-05-25T00:52:36.985Z,98.18
2023-05-25T00:55:03.962Z,99.21
2023-05-25T00:57:34.315Z,99.10
2023-05-25T01:00:04.981Z,99.18
2023-05-25T01:02:33.606Z,99.06
2023-05-25T01:05:02.712Z,98.97
2023-05-25T01:07:31.166Z,99.59
2023-05-25T01:10:01.642Z,100.00
2023-05-25T01:12:35.697Z,100.00
2023-05-25T01:15:04.201Z,100.00
2023-05-25T01:17:30.932Z,100.00
2023-05-25T01:20:09.763Z,100.00
2023-05-25T01:22:57.326Z,100.00
2023-05-25T01:25:33.445Z,100.00
2023-05-25T01:28:17.731Z,100.00
2023-05-25T01:30:48.902Z,100.00
2023-05-25T01:33:18.364Z,100.00
2023-05-25T01:35:47.196Z,100.00
2023-05-25T01:38:14.482Z,100.00
2023-05-25T01:40:41.362Z,100.00
2023-05-25T01:43:08.011Z,100.00
2023-05-25T01:45:35.534Z,100.00
2023-05-25T01:48:27.204Z,100.00
2023-05-25T01:51:01.929Z,100.00
2023-05-25T01:53:31.466Z,100.00
2023-05-25T01:56:08.672Z,100.00
2023-05-25T01:58:42.039Z,100.00
2023-05-25T02:01:10.207Z,100.00
2023-05-25T02:03:38.476Z,100.00
2023-05-25T02:06:05.554Z,100.00
2023-05-25T02:08:32.159Z,100.00
2023-05-25T02:10:58.748Z,100.00
2023-05-25T02:13:25.663Z,100.00
2023-05-25T02:15:53.218Z,100.00
2023-05-25T02:18:19.959Z,100.00
2023-05-25T02:20:47.611Z,100.00
2023-05-25T02:23:14.346Z,100.00
2023-05-25T02:25:42.763Z,100.00
2023-05-25T02:28:09.696Z,100.00
2023-05-25T02:30:36.389Z,100.00
2023-05-25T02:33:03.093Z,100.00
2023-05-25T02:35:29.783Z,100.00
2023-05-25T02:37:56.731Z,100.00
2023-05-25T02:40:24.762Z,100.00
2023-05-25T02:42:51.409Z,100.00
2023-05-25T02:45:18.205Z,100.00
2023-05-25T02:47:44.942Z,100.00
2023-05-25T02:50:11.741Z,100.00
2023-05-25T02:52:38.420Z,100.00
2023-05-25T02:55:06.080Z,100.00
2023-05-25T02:57:32.746Z,100.00
2023-05-25T02:59:59.419Z,100.00
2023-05-25T03:02:26.128Z,100.00
2023-05-25T03:04:54.042Z,100.00
2023-05-25T03:07:21.438Z,100.00
2023-05-25T03:09:48.098Z,100.00
2023-05-25T03:12:14.893Z,100.00
2023-05-25T03:14:41.533Z,100.00
2023-05-25T03:17:08.218Z,100.00
2023-05-25T03:19:34.909Z,100.00
2023-05-25T03:22:03.452Z,100.00
2023-05-25T03:24:30.202Z,100.00
2023-05-25T03:26:56.858Z,100.00
2023-05-25T03:29:23.448Z,100.00
2023-05-25T03:31:50.092Z,100.00
2023-05-25T03:34:16.720Z,100.00
2023-05-25T03:36:45.942Z,100.00
2023-05-25T03:39:13.276Z,100.00
2023-05-25T03:41:39.902Z,100.00
2023-05-25T03:44:06.588Z,100.00
2023-05-25T03:46:33.267Z,100.00
2023-05-25T03:48:59.997Z,100.00
2023-05-25T03:51:28.017Z,100.00
2023-05-25T03:53:54.720Z,100.00
2023-05-25T03:56:21.473Z,100.00
2023-05-25T03:58:48.059Z,100.00
2023-05-25T04:01:14.766Z,100.00
2023-05-25T04:03:41.553Z,100.00
2023-05-25T04:06:08.854Z,100.00
2023-05-25T04:08:35.558Z,100.00
2023-05-25T04:11:02.252Z,100.00
2023-05-25T04:13:28.877Z,100.00
2023-05-25T04:15:55.912Z,100.00
2023-05-25T04:18:22.609Z,100.00
2023-05-25T04:20:49.436Z,100.00
2023-05-25T04:23:16.958Z,100.00
2023-05-25T04:25:45.441Z,100.00
2023-05-25T04:28:12.429Z,100.00
2023-05-25T04:30:39.771Z,99.69
2023-05-25T04:33:06.451Z,98.96
2023-05-25T04:35:33.186Z,98.57
2023-05-25T04:38:03.041Z,98.71
2023-05-25T04:40:30.146Z,98.02
2023-05-25T04:42:57.136Z,97.53
2023-05-25T04:45:24.012Z,96.63
2023-05-25T04:47:51.141Z,97.37
2023-05-25T04:50:17.968Z,99.79
2023-05-25T04:52:44.648Z,99.56
2023-05-25T04:55:11.329Z,98.15
2023-05-25T04:57:37.970Z,97.43
2023-05-25T05:00:06.268Z,97.07
2023-05-25T05:02:32.965Z,98.19
2023-05-25T05:04:59.643Z,99.42
2023-05-25T05:07:26.318Z,98.24
2023-05-25T05:09:52.939Z,99.14
2023-05-25T05:12:19.682Z,98.69
2023-05-25T05:14:46.417Z,100.00
2023-05-25T05:17:13.144Z,100.00
2023-05-25T05:19:39.850Z,100.00
2023-05-25T05:22:08.660Z,100.00
2023-05-25T05:24:35.658Z,100.00
2023-05-25T05:27:04.682Z,100.00
2023-05-25T05:29:31.896Z,100.00
2023-05-25T05:31:58.827Z,99.90
2023-05-25T05:34:25.756Z,99.47
2023-05-25T05:36:57.161Z,98.55
2023-05-25T05:39:24.415Z,97.56
2023-05-25T05:41:51.400Z,95.14
2023-05-25T05:44:18.627Z,92.10
2023-05-25T05:46:46.324Z,91.71
2023-05-25T05:49:12.959Z,91.53
2023-05-25T05:51:39.608Z,87.64
2023-05-25T05:54:06.642Z,88.03
2023-05-25T05:56:33.279Z,86.65
2023-05-25T05:58:59.891Z,82.09
2023-05-25T06:01:26.516Z,82.53
2023-05-25T06:03:54.912Z,81.98
2023-05-25T06:06:21.855Z,82.55
2023-05-25T06:08:48.492Z,80.12
2023-05-25T06:11:15.259Z,84.75
2023-05-25T06:13:41.911Z,81.84
2023-05-25T06:16:08.651Z,80.23
2023-05-25T06:18:35.316Z,79.78
2023-05-25T06:21:02.411Z,78.12
2023-05-25T06:23:29.036Z,80.91
2023-05-25T06:25:56.860Z,80.19
2023-05-25T06:28:23.522Z,82.81
2023-05-25T06:30:50.447Z,80.26
2023-05-25T06:33:17.183Z,80.59
2023-05-25T06:35:44.054Z,79.07
2023-05-25T06:38:12.241Z,78.07
2023-05-25T06:40:38.860Z,81.45
2023-05-25T06:43:05.556Z,78.52
2023-05-25T06:45:32.214Z,76.74
2023-05-25T06:47:59.010Z,75.47
2023-05-25T06:50:25.944Z,78.62
2023-05-25T06:52:52.615Z,72.76
2023-05-25T06:55:19.195Z,76.66
2023-05-25T06:57:46.221Z,75.26
2023-05-25T07:00:13.698Z,76.01
2023-05-25T07:02:40.373Z,70.91
2023-05-25T07:05:07.298Z,72.39
2023-05-25T07:07:34.024Z,73.00
2023-05-25T07:10:03.053Z,72.45
2023-05-25T07:12:29.730Z,76.76
2023-05-25T07:14:57.851Z,71.29
2023-05-25T07:17:24.863Z,70.21
2023-05-25T07:19:51.701Z,75.54
2023-05-25T07:22:19.668Z,67.32
2023-05-25T07:24:46.918Z,65.44
2023-05-25T07:27:14.301Z,69.30
2023-05-25T07:29:41.276Z,66.19
2023-05-25T07:32:08.291Z,64.93
2023-05-25T07:34:35.438Z,66.59
2023-05-25T07:37:02.260Z,65.24
2023-05-25T07:39:29.027Z,69.09
2023-05-25T07:41:55.640Z,70.22
2023-05-25T07:44:22.270Z,73.64
2023-05-25T07:46:48.953Z,66.32
2023-05-25T07:49:18.370Z,63.12
2023-05-25T07:51:45.968Z,66.02
2023-05-25T07:54:12.778Z,63.96
2023-05-25T07:56:39.786Z,68.46
2023-05-25T07:59:06.707Z,64.03
2023-05-25T08:01:33.373Z,64.26
2023-05-25T08:04:00.244Z,66.07
2023-05-25T08:06:27.092Z,65.85
2023-05-25T08:08:53.885Z,61.28
2023-05-25T08:11:25.133Z,63.76
2023-05-25T08:13:51.902Z,64.09
2023-05-25T08:16:19.125Z,59.04
2023-05-25T08:18:46.951Z,61.65
2023-05-25T08:21:14.263Z,67.28
2023-05-25T08:23:42.833Z,65.60
2023-05-25T08:26:31.263Z,62.75
2023-05-25T08:28:59.363Z,62.44
2023-05-25T08:31:26.057Z,60.50
2023-05-25T08:33:52.691Z,60.65
2023-05-25T08:36:19.448Z,64.38
2023-05-25T08:38:46.039Z,67.15
2023-05-25T08:41:13.518Z,64.67
2023-05-25T08:43:41.978Z,64.61
2023-05-25T08:46:09.598Z,64.93
2023-05-25T08:48:42.214Z,66.40
2023-05-25T08:51:12.103Z,65.44
2023-05-25T08:53:40.893Z,60.45
2023-05-25T08:56:18.336Z,60.84
2023-05-25T08:58:57.972Z,61.31
2023-05-25T09:01:28.821Z,59.33
2023-05-25T09:03:57.672Z,59.99
2023-05-25T09:06:27.020Z,55.97
2023-05-25T09:08:54.599Z,57.59
2023-05-25T09:11:35.907Z,54.77
2023-05-25T09:14:04.721Z,55.40
2023-05-25T09:16:33.403Z,52.03
2023-05-25T09:19:00.208Z,48.14
2023-05-25T09:21:27.159Z,49.55
2023-05-25T09:23:54.120Z,56.23
2023-05-25T09:26:21.244Z,53.49
2023-05-25T09:28:48.172Z,48.98
2023-05-25T09:31:17.698Z,50.37
2023-05-25T09:33:46.146Z,49.47
2023-05-25T09:36:15.328Z,49.86
2023-05-25T09:38:42.379Z,54.10
2023-05-25T09:41:09.437Z,61.62
2023-05-25T09:43:43.275Z,54.88
2023-05-25T09:46:14.147Z,51.52
2023-05-25T09:48:42.011Z,52.36
2023-05-25T09:51:09.070Z,51.19
2023-05-25T09:53:35.809Z,50.24
2023-05-25T09:56:04.194Z,50.94
2023-05-25T09:58:31.239Z,52.99
2023-05-25T10:00:58.414Z,49.64
2023-05-25T10:03:25.729Z,49.21
2023-05-25T10:05:54.805Z,49.76
2023-05-25T10:08:23.484Z,48.64
2023-05-25T10:10:50.811Z,48.74
2023-05-25T10:13:22.972Z,46.99
2023-05-25T10:15:53.568Z,48.71
2023-05-25T10:18:26.311Z,49.38
2023-05-25T10:21:00.755Z,50.51
2023-05-25T10:23:50.214Z,49.68
2023-05-25T10:26:24.313Z,47.00
2023-05-25T10:28:52.436Z,48.41
2023-05-25T10:31:19.788Z,47.02
2023-05-25T10:33:50.562Z,44.39
2023-05-25T10:36:20.814Z,46.42
2023-05-25T10:38:50.955Z,46.33
2023-05-25T10:41:19.576Z,47.77
2023-05-25T10:43:47.086Z,44.80
2023-05-25T10:46:15.320Z,44.38
2023-05-25T10:48:50.190Z,44.22
2023-05-25T10:51:19.743Z,50.75
2023-05-25T10:53:58.558Z,47.55
2023-05-25T10:56:25.233Z,45.10
2023-05-25T10:58:53.097Z,47.75
2023-05-25T11:01:19.905Z,46.30
2023-05-25T11:04:16.031Z,46.79
2023-05-25T11:06:45.823Z,48.68
2023-05-25T11:09:26.947Z,45.20
2023-05-25T11:11:55.630Z,45.26
2023-05-25T11:14:24.061Z,46.06
2023-05-25T11:17:14.802Z,45.12
2023-05-25T11:19:52.011Z,46.88
2023-05-25T11:22:22.934Z,47.62
2023-05-25T11:24:51.288Z,47.30
2023-05-25T11:27:29.423Z,48.06
2023-05-25T11:29:57.893Z,47.54
2023-05-25T11:32:29.277Z,49.34
2023-05-25T11:34:58.556Z,47.98
2023-05-25T11:37:29.055Z,49.30
2023-05-25T11:39:56.051Z,50.03
2023-05-25T11:42:24.608Z,52.39
2023-05-25T11:44:52.057Z,53.53
2023-05-25T11:47:25.122Z,58.91
2023-05-25T11:49:52.342Z,66.90
2023-05-25T11:52:20.864Z,70.86
2023-05-25T11:54:47.761Z,72.39
2023-05-25T11:57:16.950Z,76.15
2023-05-25T11:59:52.796Z,81.03
2023-05-25T12:02:20.627Z,83.11
2023-05-25T12:05:02.060Z,85.09
2023-05-25T12:07:30.748Z,88.38
2023-05-25T12:10:11.169Z,90.40
2023-05-25T12:12:44.827Z,94.69
2023-05-25T12:15:19.007Z,96.07
2023-05-25T12:17:47.479Z,95.19
2023-05-25T12:20:16.944Z,95.01
2023-05-25T12:22:44.826Z,96.36
2023-05-25T12:25:12.667Z,97.93
2023-05-25T12:27:42.726Z,98.14
2023-05-25T12:30:12.954Z,97.63
2023-05-25T12:33:01.713Z,98.09
2023-05-25T12:35:29.880Z,99.63
2023-05-25T12:38:12.861Z,100.00
2023-05-25T12:40:39.527Z,100.00
2023-05-25T12:43:06.382Z,100.00
2023-05-25T12:45:33.085Z,98.32
2023-05-25T12:48:00.250Z,100.00
2023-05-25T12:50:29.514Z,100.00
2023-05-25T12:53:02.468Z,100.00
2023-05-25T12:55:33.017Z,100.00
2023-05-25T12:58:07.161Z,100.00
2023-05-25T13:00:41.464Z,100.00
2023-05-25T13:03:08.439Z,99.85
2023-05-25T13:05:37.157Z,100.00
2023-05-25T13:08:05.170Z,100.00
2023-05-25T13:10:33.226Z,100.00
2023-05-25T13:13:00.801Z,100.00
2023-05-25T13:15:28.198Z,100.00
2023-05-25T13:17:56.446Z,100.00
2023-05-25T13:20:27.784Z,100.00
2023-05-25T13:22:56.001Z,100.00
2023-05-25T13:25:23.112Z,99.01
2023-05-25T13:27:51.851Z,98.22
2023-05-25T13:30:20.894Z,97.88
2023-05-25T13:32:50.298Z,98.05
2023-05-25T13:35:36.681Z,97.72
2023-05-25T13:38:03.991Z,97.10
2023-05-25T13:40:30.654Z,96.03
2023-05-25T13:42:57.316Z,97.04
2023-05-25T13:45:23.965Z,95.36
2023-05-25T13:47:50.735Z,94.90
2023-05-25T13:50:17.527Z,92.86
2023-05-25T13:52:44.195Z,95.38
2023-05-25T13:55:11.428Z,91.79
2023-05-25T13:57:38.128Z,93.52
2023-05-25T14:00:13.527Z,92.89
2023-05-25T14:02:40.671Z,92.30
2023-05-25T14:07:52.722Z,91.66
2023-05-25T14:10:20.368Z,90.39
2023-05-25T14:12:46.999Z,90.38
2023-05-25T14:15:13.732Z,91.09
2023-05-25T14:17:40.391Z,91.18
2023-05-25T14:20:07.772Z,86.20
2023-05-25T14:22:34.425Z,90.14
2023-05-25T14:25:01.182Z,89.99
2023-05-25T14:27:27.773Z,88.38
2023-05-25T14:29:54.390Z,88.39
2023-05-25T14:32:21.106Z,88.23
2023-05-25T14:34:47.799Z,86.02
2023-05-25T14:37:14.478Z,84.21
2023-05-25T14:39:41.074Z,85.20
2023-05-25T14:42:07.805Z,82.58
2023-05-25T14:44:34.443Z,83.21
2023-05-25T14:47:01.181Z,83.58
2023-05-25T14:49:27.836Z,86.15
2023-05-25T14:51:54.729Z,82.42
2023-05-25T14:54:21.464Z,81.05
2023-05-25T14:56:48.180Z,79.96
2023-05-25T14:59:14.834Z,79.78
2023-05-25T15:01:41.500Z,79.84
2023-05-25T15:04:08.771Z,79.90
2023-05-25T15:06:36.860Z,80.29
2023-05-25T15:09:03.563Z,79.62
2023-05-25T15:11:30.156Z,80.35
2023-05-25T15:13:58.696Z,79.81
2023-05-25T15:16:25.533Z,81.76
2023-05-25T15:18:52.214Z,81.60
2023-05-25T15:21:18.888Z,81.17
2023-05-25T15:23:45.667Z,83.74
2023-05-25T15:26:12.884Z,85.81
2023-05-25T15:28:39.475Z,86.32
2023-05-25T15:31:06.054Z,85.94
2023-05-25T15:33:48.612Z,84.36
2023-05-25T15:36:18.879Z,83.33
2023-05-25T15:38:49.085Z,82.27
2023-05-25T15:41:16.935Z,81.86
2023-05-25T15:43:52.653Z,80.23
2023-05-25T15:46:19.528Z,79.80
2023-05-25T15:48:46.169Z,79.64
2023-05-25T15:51:12.834Z,80.74
2023-05-25T15:53:39.761Z,80.64
2023-05-25T15:56:06.539Z,80.86
2023-05-25T15:58:34.520Z,77.62
2023-05-25T16:01:01.732Z,78.43
2023-05-25T16:03:29.347Z,78.93
2023-05-25T16:05:56.671Z,78.58
2023-05-25T16:08:23.846Z,78.57
2023-05-25T16:10:50.655Z,79.07
2023-05-25T16:13:17.258Z,79.28
2023-05-25T16:15:44.014Z,79.13
2023-05-25T16:18:11.120Z,79.05
2023-05-25T16:20:37.817Z,77.79
2023-05-25T16:23:04.586Z,80.14
2023-05-25T16:25:31.172Z,78.04
2023-05-25T16:27:57.799Z,78.21
2023-05-25T16:30:24.388Z,79.27
2023-05-25T16:32:51.005Z,79.75
2023-05-25T16:35:17.786Z,80.10
2023-05-25T16:37:44.909Z,78.94
2023-05-25T16:40:11.712Z,78.85
2023-05-25T16:42:38.352Z,76.73
2023-05-25T16:45:05.469Z,77.27
2023-05-25T16:47:32.193Z,76.59
2023-05-25T16:49:58.826Z,75.08
2023-05-25T16:52:25.777Z,75.02
2023-05-25T16:54:52.376Z,75.43
2023-05-25T16:57:19.156Z,75.70
2023-05-25T16:59:46.111Z,75.38
2023-05-25T17:02:12.755Z,75.77
2023-05-25T17:04:39.378Z,75.82
2023-05-25T17:07:06.357Z,77.03
2023-05-25T17:09:33.116Z,78.58
2023-05-25T17:12:01.733Z,78.75
2023-05-25T17:14:28.419Z,77.92
2023-05-25T17:16:55.238Z,78.80
2023-05-25T17:19:21.976Z,76.34
2023-05-25T17:21:48.610Z,76.63
2023-05-25T17:24:15.410Z,75.80
2023-05-25T17:26:42.050Z,74.28
2023-05-25T17:29:08.647Z,73.74
2023-05-25T17:31:35.575Z,73.46
2023-05-25T17:34:02.326Z,73.23
2023-05-25T17:36:28.944Z,73.70
2023-05-25T17:38:55.652Z,74.34
2023-05-25T17:41:22.844Z,74.16
2023-05-25T17:43:49.539Z,74.84
2023-05-25T17:46:16.652Z,75.68
2023-05-25T17:48:43.337Z,74.82
2023-05-25T17:51:10.083Z,74.63
2023-05-25T17:53:37.521Z,74.57
2023-05-25T17:56:04.412Z,74.89
2023-05-25T17:58:31.009Z,76.05
2023-05-25T18:00:57.890Z,75.07
2023-05-25T18:03:25.937Z,74.76
2023-05-25T18:05:52.754Z,74.70
2023-05-25T18:08:19.361Z,74.29
2023-05-25T18:10:46.144Z,74.38
2023-05-25T18:13:13.210Z,74.08
2023-05-25T18:15:39.821Z,75.51
2023-05-25T18:18:08.386Z,75.94
2023-05-25T18:20:35.097Z,77.04
2023-05-25T18:23:03.314Z,76.47
2023-05-25T18:25:30.003Z,76.53
2023-05-25T18:27:56.600Z,76.83
2023-05-25T18:30:23.213Z,77.51
2023-05-25T18:32:49.855Z,78.28
2023-05-25T18:35:16.581Z,78.46
2023-05-25T18:37:43.270Z,80.11
2023-05-25T18:40:12.879Z,79.71
2023-05-25T18:42:40.034Z,80.04
2023-05-25T18:45:07.062Z,80.70
2023-05-25T18:47:33.900Z,80.75
2023-05-25T18:50:01.062Z,82.59
2023-05-25T18:52:27.706Z,80.52
2023-05-25T18:54:54.329Z,80.79
2023-05-25T18:57:21.280Z,81.35
2023-05-25T18:59:47.940Z,82.15
2023-05-25T19:02:14.582Z,82.73
2023-05-25T19:04:41.439Z,84.03
2023-05-25T19:07:08.042Z,84.82
2023-05-25T19:09:34.732Z,85.62
2023-05-25T19:12:01.438Z,86.51
2023-05-25T19:14:28.072Z,87.32
2023-05-25T19:16:54.748Z,88.92
2023-05-25T19:19:21.558Z,88.99
2023-05-25T19:21:48.158Z,88.84
2023-05-25T19:24:14.798Z,89.46
2023-05-25T19:26:41.795Z,89.95
2023-05-25T19:29:08.354Z,90.15
2023-05-25T19:31:35.067Z,90.87
2023-05-25T19:34:01.726Z,90.64
2023-05-25T19:36:28.614Z,91.14
2023-05-25T19:38:55.400Z,91.88
2023-05-25T19:41:22.083Z,92.40
2023-05-25T19:43:48.710Z,93.02
2023-05-25T19:46:15.455Z,93.61
2023-05-25T19:48:42.637Z,93.39
2023-05-25T19:51:09.262Z,93.52
2023-05-25T19:53:35.906Z,93.00
2023-05-25T19:56:03.511Z,93.72
2023-05-25T19:58:30.142Z,94.28
2023-05-25T20:00:57.047Z,93.39
2023-05-25T20:03:23.850Z,93.32
2023-05-25T20:05:50.614Z,88.10
2023-05-25T20:08:17.318Z,87.81
2023-05-25T20:10:45.185Z,87.81
2023-05-25T20:13:12.661Z,88.80
2023-05-25T20:15:39.353Z,89.30
2023-05-25T20:18:06.097Z,90.22
2023-05-25T20:20:32.833Z,90.79
2023-05-25T20:22:59.735Z,91.61
2023-05-25T20:25:26.578Z,91.15
2023-05-25T20:27:53.302Z,90.84
2023-05-25T20:30:19.973Z,90.60
2023-05-25T20:32:46.668Z,89.89
2023-05-25T20:35:13.821Z,90.42
2023-05-25T20:37:41.876Z,90.58
2023-05-25T20:40:09.247Z,88.16
2023-05-25T20:42:36.178Z,88.55
2023-05-25T20:45:02.828Z,88.08
2023-05-25T20:47:29.505Z,88.24
2023-05-25T20:49:56.222Z,88.52
2023-05-25T20:52:23.737Z,89.01
2023-05-25T20:54:50.570Z,89.76
2023-05-25T20:57:17.205Z,90.41
2023-05-25T20:59:43.886Z,90.94
2023-05-25T21:02:10.608Z,91.48
2023-05-25T21:04:37.258Z,91.63
2023-05-25T21:07:04.173Z,92.31
2023-05-25T21:09:31.053Z,92.97
2023-05-25T21:11:57.722Z,93.17
2023-05-25T21:14:24.342Z,93.38
2023-05-25T21:16:51.403Z,93.87
2023-05-25T21:19:18.068Z,93.16
2023-05-25T21:21:44.735Z,94.04
2023-05-25T21:24:11.371Z,94.34
2023-05-25T21:26:38.035Z,95.00
2023-05-25T21:29:04.634Z,95.01
2023-05-25T21:31:31.377Z,94.63
2023-05-25T21:33:59.934Z,94.82
2023-05-25T21:36:26.807Z,94.92
2023-05-25T21:38:53.417Z,94.97
2023-05-25T21:41:20.307Z,95.65
2023-05-25T21:43:46.943Z,95.82
2023-05-25T21:46:13.537Z,95.81
2023-05-25T21:48:40.213Z,94.99
2023-05-25T21:51:06.810Z,95.41
2023-05-25T21:53:33.683Z,95.30
2023-05-25T21:56:00.286Z,95.86
2023-05-25T21:58:26.892Z,94.95
2023-05-25T22:00:53.521Z,95.18
2023-05-25T22:03:20.261Z,94.87
2023-05-25T22:05:47.010Z,94.68
2023-05-25T22:08:13.821Z,95.15
2023-05-25T22:10:40.435Z,95.43
2023-05-25T22:13:07.253Z,95.93
2023-05-25T22:15:34.404Z,95.76
2023-05-25T22:18:01.628Z,95.63
2023-05-25T22:20:28.438Z,95.74
2023-05-25T22:22:55.139Z,95.50
2023-05-25T22:25:21.791Z,95.43
2023-05-25T22:27:48.476Z,95.80
2023-05-25T22:30:15.324Z,96.10
2023-05-25T22:32:42.261Z,95.34
2023-05-25T22:35:08.949Z,95.83
2023-05-25T22:37:35.553Z,95.82
2023-05-25T22:40:02.188Z,95.80
2023-05-25T22:42:28.794Z,96.11
2023-05-25T22:44:55.569Z,95.86
2023-05-25T22:47:22.219Z,95.72
2023-05-25T22:49:48.887Z,96.37
2023-05-25T22:52:15.610Z,96.52
2023-05-25T22:54:42.443Z,96.94
2023-05-25T22:57:10.082Z,96.32
2023-05-25T22:59:36.930Z,95.89
2023-05-25T23:02:04.042Z,96.59
2023-05-25T23:04:30.932Z,95.88
2023-05-25T23:06:57.564Z,95.01
2023-05-25T23:09:24.129Z,94.43
2023-05-25T23:11:50.894Z,95.13
2023-05-25T23:14:17.558Z,95.35
2023-05-25T23:16:44.626Z,96.10
2023-05-25T23:19:11.414Z,95.85
2023-05-25T23:21:38.185Z,95.56
2023-05-25T23:24:05.117Z,94.73
2023-05-25T23:26:31.698Z,93.76
2023-05-25T23:28:58.452Z,92.90
2023-05-25T23:31:25.201Z,92.96
2023-05-25T23:33:51.856Z,93.72
2023-05-25T23:36:18.589Z,94.08
2023-05-25T23:38:46.453Z,94.39
2023-05-25T23:41:13.401Z,94.48
2023-05-25T23:43:40.039Z,93.99
2023-05-25T23:46:07.333Z,94.73
2023-05-25T23:48:34.028Z,95.16
2023-05-25T23:51:00.674Z,95.54
2023-05-25T23:53:27.310Z,95.41
2023-05-25T23:55:53.917Z,95.56
2023-05-25T23:58:20.665Z,95.65
